Time;durP1;ratioP1;P1;durP2;ratioP2;P2;SDS_P1;SDS_P2;PMS_P1;PMS_P2;Temp;Humidity;BMP_temperature;BMP_pressure;BME280_temperature;BME280_humidity;BME280_pressure;Samples;Min_cycle;Max_cycle;Signal;HPM_P1;HPM_P2
2023/01/06 00:01:13;;;;;;;28.70;27.60;;;8.20;98.60;;;;;;5048998;28;20024;-77
2023/01/06 00:03:39;;;;;;;28.48;27.38;;;8.20;98.70;;;;;;5048942;28;20017;-77
2023/01/06 00:06:07;;;;;;;28.73;27.63;;;8.30;98.80;;;;;;5047520;28;20032;-77
2023/01/06 00:08:36;;;;;;;28.05;26.95;;;8.30;98.80;;;;;;5048730;28;20492;-77
2023/01/06 00:11:06;;;;;;;28.10;27.00;;;8.40;98.80;;;;;;5048684;28;20122;-77
2023/01/06 00:13:32;;;;;;;27.52;26.42;;;8.40;98.70;;;;;;5047452;28;20032;-77
2023/01/06 00:16:01;;;;;;;27.90;26.80;;;8.40;98.80;;;;;;5048679;28;20040;-77
2023/01/06 00:18:27;;;;;;;29.65;28.55;;;8.40;98.70;;;;;;5047140;28;20366;-77
2023/01/06 00:20:53;;;;;;;29.20;28.10;;;8.40;98.60;;;;;;5030757;28;20025;-77
2023/01/06 00:23:18;;;;;;;28.52;27.42;;;8.40;98.60;;;;;;5047017;28;20167;-77
2023/01/06 00:25:50;;;;;;;28.88;27.77;;;8.30;98.70;;;;;;5047108;28;20025;-77
2023/01/06 00:28:16;;;;;;;28.15;27.05;;;8.30;98.70;;;;;;5048421;28;20027;-77
2023/01/06 00:30:42;;;;;;;29.10;28.00;;;8.40;98.70;;;;;;5047028;28;20410;-77
2023/01/06 00:33:08;;;;;;;28.40;27.30;;;8.30;98.60;;;;;;5048134;28;20025;-77
2023/01/06 00:35:33;;;;;;;29.20;28.10;;;8.30;98.60;;;;;;5047116;28;20222;-77
2023/01/06 00:37:59;;;;;;;28.05;26.95;;;8.20;98.70;;;;;;5047105;28;20439;-77
2023/01/06 00:40:25;;;;;;;28.40;27.30;;;8.20;98.70;;;;;;5046958;28;20063;-77
2023/01/06 00:42:51;;;;;;;28.75;27.65;;;8.20;98.60;;;;;;5046858;28;20055;-77
2023/01/06 00:45:16;;;;;;;27.52;26.42;;;8.10;98.60;;;;;;5047962;28;20386;-77
2023/01/06 00:47:42;;;;;;;29.52;28.42;;;8.10;98.60;;;;;;5046691;28;20032;-77
2023/01/06 00:50:09;;;;;;;27.33;26.23;;;8.10;98.70;;;;;;5046619;28;20029;-77
2023/01/06 00:52:34;;;;;;;;;;;8.10;98.70;;;;;;5047350;28;20039;-77
2023/01/06 00:55:00;;;;;;;27.02;26.02;;;8.10;98.70;;;;;;5047726;28;20006;-77
2023/01/06 00:57:26;;;;;;;26.00;25.00;;;8.10;98.70;;;;;;5046469;28;20060;-77
2023/01/06 00:59:51;;;;;;;26.45;25.45;;;8.10;98.60;;;;;;5046769;28;20079;-77
2023/01/06 01:02:17;;;;;;;28.05;26.95;;;8.00;98.60;;;;;;5029700;28;20060;-77
2023/01/06 01:04:43;;;;;;;27.10;26.00;;;8.00;98.70;;;;;;5047760;28;20072;-77
2023/01/06 01:07:09;;;;;;;27.17;26.13;;;8.10;98.80;;;;;;5047111;28;20036;-77
2023/01/06 01:09:35;;;;;;;26.80;25.80;;;8.10;98.70;;;;;;5046525;28;20024;-78
2023/01/06 01:12:13;;;;;;;26.73;25.73;;;8.10;98.70;;;;;;5047879;28;20060;-77
2023/01/06 01:14:51;;;;;;;28.08;26.98;;;8.00;98.60;;;;;;5046268;28;20056;-77
2023/01/06 01:17:21;;;;;;;28.50;27.40;;;7.90;98.60;;;;;;5047765;28;20040;-76
2023/01/06 01:19:49;;;;;;;28.92;27.83;;;7.90;98.60;;;;;;5047648;28;20112;-76
2023/01/06 01:22:15;;;;;;;29.60;28.50;;;7.80;98.60;;;;;;5046119;28;20032;-77
2023/01/06 01:24:40;;;;;;;29.63;28.52;;;7.80;98.60;;;;;;5047993;28;20029;-76
2023/01/06 01:27:06;;;;;;;29.27;28.17;;;7.80;98.60;;;;;;5046463;28;20029;-78
2023/01/06 01:29:33;;;;;;;30.38;29.17;;;7.70;98.60;;;;;;5046496;28;20017;-78
2023/01/06 01:31:59;;;;;;;30.83;29.63;;;7.70;98.60;;;;;;5047857;28;20048;-78
2023/01/06 01:34:25;;;;;;;31.10;29.90;;;7.70;98.60;;;;;;5046519;28;20029;-78
2023/01/06 01:36:52;;;;;;;30.30;29.10;;;7.60;98.60;;;;;;5046245;28;20383;-78
2023/01/06 01:39:20;;;;;;;28.52;27.42;;;7.60;98.70;;;;;;5047648;28;20029;-78
2023/01/06 01:41:46;;;;;;;29.45;28.35;;;7.60;98.70;;;;;;5046170;28;20174;-77
2023/01/06 01:45:09;;;;;;;29.42;28.33;;;7.60;98.70;;;;;;5046047;28;20024;-78
2023/01/06 01:48:06;;;;;;;30.17;28.98;;;7.60;98.70;;;;;;4988800;28;20026;-78
2023/01/06 01:50:40;;;;;;;29.33;28.23;;;7.60;98.70;;;;;;5004558;28;20089;-77
2023/01/06 01:53:30;;;;;;;29.20;28.10;;;7.50;98.60;;;;;;5035776;28;20021;-77
2023/01/06 01:55:59;;;;;;;28.23;27.13;;;7.50;98.70;;;;;;5044584;28;20043;-77
2023/01/06 01:58:35;;;;;;;29.40;28.30;;;7.50;98.60;;;;;;5046046;28;20022;-77
2023/01/06 02:01:01;;;;;;;26.50;25.50;;;7.50;98.70;;;;;;5047534;28;20071;-78
2023/01/06 02:03:27;;;;;;;26.40;25.40;;;7.50;98.70;;;;;;5045946;28;20064;-78
2023/01/06 02:05:56;;;;;;;28.20;27.10;;;7.40;98.60;;;;;;5045908;28;20469;-77
2023/01/06 02:08:31;;;;;;;27.65;26.55;;;7.50;98.70;;;;;;5047323;28;20025;-77
2023/01/06 02:10:56;;;;;;;27.60;26.50;;;7.50;98.70;;;;;;5047594;28;20164;-78
2023/01/06 02:13:22;;;;;;;26.90;25.90;;;7.50;98.70;;;;;;5045703;28;20393;-77
2023/01/06 02:15:50;;;;;;;26.75;25.75;;;7.50;98.70;;;;;;5046017;28;20436;-77
2023/01/06 02:18:48;;;;;;;25.08;24.08;;;7.50;98.60;;;;;;5049131;28;20031;-78
2023/01/06 02:21:20;;;;;;;;;;;7.50;98.60;;;;;;5016768;28;20040;-77
2023/01/06 02:23:58;;;;;;;26.50;25.50;;;7.50;98.60;;;;;;5049417;28;19915;-78
2023/01/06 02:26:42;;;;;;;27.27;26.20;;;7.40;98.50;;;;;;5050762;28;20029;-77
2023/01/06 02:29:32;;;;;;;26.10;25.10;;;7.40;98.50;;;;;;5050891;28;20029;-77
2023/01/06 02:32:14;;;;;;;25.90;24.90;;;7.40;98.60;;;;;;5049344;28;20028;-77
2023/01/06 02:35:41;;;;;;;26.27;25.27;;;7.30;98.60;;;;;;5049399;28;20026;-78
2023/01/06 02:38:26;;;;;;;24.70;23.70;;;7.30;98.60;;;;;;5014210;28;20040;-78
2023/01/06 02:41:15;;;;;;;25.85;24.85;;;7.30;98.60;;;;;;5050339;28;20048;-78
2023/01/06 02:44:00;;;;;;;27.20;26.15;;;7.30;98.60;;;;;;5050366;28;20025;-78
2023/01/06 02:47:00;;;;;;;26.00;25.00;;;7.30;98.60;;;;;;5048982;28;20028;-78
2023/01/06 02:49:29;;;;;;;26.35;25.35;;;7.30;98.60;;;;;;5049098;28;20036;-77
2023/01/06 02:52:01;;;;;;;26.67;25.67;;;7.30;98.70;;;;;;5048834;28;20047;-77
2023/01/06 02:54:39;;;;;;;26.60;25.60;;;7.30;98.60;;;;;;5048842;28;20056;-77
2023/01/06 02:57:22;;;;;;;28.15;27.05;;;7.30;98.70;;;;;;5048975;28;20041;-77
2023/01/06 03:00:09;;;;;;;29.25;28.15;;;7.30;98.60;;;;;;5050423;28;20025;-77
2023/01/06 03:02:37;;;;;;;28.73;27.63;;;7.30;98.70;;;;;;5050071;28;20370;-78
2023/01/06 03:05:05;;;;;;;27.33;26.23;;;7.30;98.60;;;;;;5032080;28;20396;-78
2023/01/06 03:07:32;;;;;;;27.45;26.35;;;7.30;98.70;;;;;;5049942;28;20032;-78
2023/01/06 03:10:00;;;;;;;27.10;26.05;;;7.30;98.70;;;;;;5048904;28;20104;-78
2023/01/06 03:12:59;;;;;;;28.35;27.25;;;7.30;98.60;;;;;;5048748;28;20363;-78
2023/01/06 03:15:25;;;;;;;26.20;25.20;;;7.30;98.70;;;;;;5012482;28;20138;-77
2023/01/06 03:17:51;;;;;;;26.38;25.38;;;7.20;98.60;;;;;;5048704;28;20155;-78
2023/01/06 03:20:18;;;;;;;26.50;25.50;;;7.30;98.70;;;;;;5049819;28;20035;-77
2023/01/06 03:22:43;;;;;;;26.88;25.88;;;7.20;98.60;;;;;;5031897;28;20397;-77
2023/01/06 03:25:11;;;;;;;26.70;25.70;;;7.20;98.60;;;;;;5048297;28;20017;-78
2023/01/06 03:27:37;;;;;;;27.33;26.23;;;7.20;98.60;;;;;;5049676;28;20040;-78
2023/01/06 03:30:08;;;;;;;28.13;27.02;;;7.20;98.60;;;;;;5048727;28;20033;-78
2023/01/06 03:32:43;;;;;;;25.42;24.42;;;7.20;98.60;;;;;;5049503;28;20046;-77
2023/01/06 03:35:33;;;;;;;26.42;25.42;;;7.20;98.80;;;;;;5048295;28;20558;-78
2023/01/06 03:38:17;;;;;;;25.38;24.38;;;7.20;98.60;;;;;;5048119;28;20456;-78
2023/01/06 03:41:06;;;;;;;25.50;24.50;;;7.20;98.60;;;;;;5049390;28;20025;-77
2023/01/06 03:43:34;;;;;;;26.73;25.73;;;7.20;98.60;;;;;;5049182;28;20025;-78
2023/01/06 03:46:25;;;;;;;26.92;25.90;;;7.10;98.60;;;;;;5047916;28;20071;-77
2023/01/06 03:48:57;;;;;;;29.60;28.50;;;7.10;98.50;;;;;;5048974;28;20033;-77
2023/01/06 03:51:38;;;;;;;29.83;28.73;;;7.10;98.50;;;;;;5048895;28;20017;-76
2023/01/06 03:54:28;;;;;;;29.08;27.98;;;7.00;98.40;;;;;;5048925;28;20032;-77
2023/01/06 03:57:02;;;;;;;31.67;30.48;;;6.90;98.40;;;;;;5048863;28;20589;-75
2023/01/06 03:59:31;;;;;;;32.78;31.58;;;6.90;98.40;;;;;;5048809;28;20112;-76
2023/01/06 04:01:57;;;;;;;31.67;30.48;;;6.80;98.40;;;;;;5048857;28;20107;-76
2023/01/06 04:04:23;;;;;;;;;;;6.80;98.40;;;;;;5049246;28;20025;-76
2023/01/06 04:06:49;;;;;;;33.05;31.77;;;6.70;98.40;;;;;;5047425;28;20020;-76
2023/01/06 04:09:14;;;;;;;32.03;30.83;;;6.70;98.40;;;;;;5047447;28;20033;-76
2023/01/06 04:14:24;;;;;;;32.20;31.00;;;6.60;98.60;;;;;;5048792;28;20051;-76
2023/01/06 04:16:50;;;;;;;31.08;29.88;;;6.60;98.40;;;;;;5048887;28;20507;-76
2023/01/06 04:19:15;;;;;;;31.00;29.80;;;6.60;98.50;;;;;;5048402;28;20512;-77
2023/01/06 04:21:41;;;;;;;31.98;30.77;;;6.60;98.50;;;;;;5047224;28;20029;-76
2023/01/06 04:24:07;;;;;;;31.90;30.70;;;6.60;98.50;;;;;;5047070;28;20044;-76
2023/01/06 04:26:33;;;;;;;33.65;32.35;;;6.50;98.50;;;;;;5030433;28;20478;-77
2023/01/06 04:29:00;;;;;;;33.00;31.73;;;6.50;98.60;;;;;;5047060;28;20041;-76
2023/01/06 04:31:26;;;;;;;32.30;31.10;;;6.60;98.50;;;;;;5046958;28;20473;-77
2023/01/06 04:33:51;;;;;;;34.83;33.53;;;6.50;98.40;;;;;;5046722;28;20026;-77
2023/01/06 04:36:19;;;;;;;35.13;33.83;;;6.50;98.50;;;;;;5030269;28;20155;-77
2023/01/06 04:38:45;;;;;;;33.60;32.30;;;6.50;98.40;;;;;;5048232;28;20105;-77
2023/01/06 04:41:11;;;;;;;35.72;34.38;;;6.50;98.40;;;;;;5046911;28;20031;-77
2023/01/06 04:43:36;;;;;;;34.67;33.38;;;6.50;98.40;;;;;;5046911;28;20033;-77
2023/01/06 04:46:02;;;;;;;36.88;35.47;;;6.50;98.40;;;;;;5047060;28;20029;-77
2023/01/06 04:48:28;;;;;;;37.30;35.90;;;6.50;98.40;;;;;;5030109;28;20037;-76
2023/01/06 04:51:07;;;;;;;36.00;34.60;;;6.40;98.40;;;;;;5046510;28;20024;-77
2023/01/06 04:53:39;;;;;;;37.05;35.65;;;6.40;98.40;;;;;;5046296;28;20032;-77
2023/01/06 04:56:07;;;;;;;36.22;34.83;;;6.40;98.40;;;;;;5045412;28;20045;-77
2023/01/06 04:58:33;;;;;;;36.60;35.20;;;6.40;98.40;;;;;;5046351;28;20406;-77
2023/01/06 05:01:07;;;;;;;36.25;34.85;;;6.40;98.40;;;;;;5046250;28;20040;-77
2023/01/06 05:03:36;;;;;;;36.17;34.78;;;6.40;98.40;;;;;;5047896;28;20104;-77
2023/01/06 05:06:05;;;;;;;36.95;35.55;;;6.40;98.40;;;;;;5046670;28;20416;-77
2023/01/06 05:08:31;;;;;;;36.08;34.67;;;6.50;98.50;;;;;;5046182;28;20039;-77
2023/01/06 05:11:01;;;;;;;36.08;34.67;;;6.50;98.60;;;;;;5046838;28;20115;-77
2023/01/06 05:13:28;;;;;;;37.58;36.17;;;6.50;98.50;;;;;;5029560;28;20033;-77
2023/01/06 05:15:53;;;;;;;38.90;37.40;;;6.50;98.50;;;;;;5046430;28;20473;-77
2023/01/06 05:18:19;;;;;;;37.83;36.42;;;6.60;98.50;;;;;;5046242;28;20075;-76
2023/01/06 05:20:51;;;;;;;39.97;38.47;;;6.60;98.50;;;;;;5046367;28;20358;-76
2023/01/06 05:23:17;;;;;;;39.20;37.70;;;6.60;98.50;;;;;;5047390;28;20111;-77
2023/01/06 05:25:43;;;;;;;39.45;37.95;;;6.60;98.50;;;;;;5047521;28;20105;-77
2023/01/06 05:28:08;;;;;;;40.88;39.38;;;6.60;98.50;;;;;;5047945;28;20087;-76
2023/01/06 05:30:34;;;;;;;41.83;40.22;;;6.60;98.40;;;;;;5046047;28;20135;-76
2023/01/06 05:33:00;;;;;;;41.35;39.75;;;6.60;98.50;;;;;;5047258;28;20555;-76
2023/01/06 05:35:26;;;;;;;41.33;39.72;;;6.60;98.40;;;;;;5047286;28;20064;-77
2023/01/06 05:37:56;;;;;;;40.40;38.90;;;6.60;98.40;;;;;;5046141;28;20036;-76
2023/01/06 05:40:21;;;;;;;41.45;39.85;;;6.60;98.50;;;;;;5046151;28;20029;-77
2023/01/06 05:42:47;;;;;;;42.58;40.97;;;6.60;98.50;;;;;;5047351;28;20025;-77
2023/01/06 05:45:13;;;;;;;40.60;39.10;;;6.60;98.50;;;;;;5029541;28;20104;-76
2023/01/06 05:47:39;;;;;;;42.13;40.53;;;6.60;98.50;;;;;;5047415;28;20355;-77
2023/01/06 05:50:05;;;;;;;42.65;41.05;;;6.70;98.50;;;;;;5045750;28;20025;-77
2023/01/06 05:52:30;;;;;;;41.50;39.90;;;6.60;98.50;;;;;;5046709;28;20051;-76
2023/01/06 05:54:56;;;;;;;43.60;42.00;;;6.70;98.50;;;;;;5033257;28;20124;-76
2023/01/06 05:57:22;;;;;;;42.45;40.85;;;6.70;98.50;;;;;;5050898;28;20111;-77
2023/01/06 05:59:47;;;;;;;41.90;40.30;;;6.70;98.40;;;;;;5051156;28;20036;-77
2023/01/06 06:02:13;;;;;;;41.95;40.35;;;6.70;98.40;;;;;;5051019;28;20481;-77
2023/01/06 06:04:39;;;;;;;41.60;40.00;;;6.70;98.40;;;;;;5050978;28;20029;-77
2023/01/06 06:07:04;;;;;;;40.78;39.28;;;6.70;98.40;;;;;;5033083;28;20026;-77
2023/01/06 06:09:30;;;;;;;44.10;42.40;;;6.70;98.50;;;;;;5049685;28;20500;-77
2023/01/06 06:11:56;;;;;;;46.45;44.67;;;6.70;98.40;;;;;;5051060;28;20036;-77
2023/01/06 06:14:21;;;;;;;46.47;44.72;;;6.60;98.40;;;;;;5049482;28;20064;-77
2023/01/06 06:16:47;;;;;;;45.22;43.53;;;6.60;98.40;;;;;;5050707;28;20477;-77
2023/01/06 06:19:13;;;;;;;47.10;45.33;;;6.60;98.40;;;;;;5049443;28;20162;-77
2023/01/06 06:21:39;;;;;;;46.00;44.30;;;6.60;98.40;;;;;;5049590;28;20031;-77
2023/01/06 06:24:05;;;;;;;45.10;43.40;;;6.60;98.40;;;;;;5049302;28;20111;-77
2023/01/06 06:26:31;;;;;;;44.40;42.70;;;6.60;98.40;;;;;;5049284;28;20040;-77
2023/01/06 06:28:56;;;;;;;45.08;43.38;;;6.60;98.40;;;;;;5032799;28;20033;-79
2023/01/06 06:31:24;;;;;;;44.72;43.03;;;6.60;98.40;;;;;;5048983;28;20040;-79
2023/01/06 06:33:52;;;;;;;45.00;43.30;;;6.60;98.50;;;;;;5050300;28;20048;-79
2023/01/06 06:36:19;;;;;;;46.35;44.60;;;6.60;98.50;;;;;;5049036;28;20029;-79
2023/01/06 06:38:46;;;;;;;43.10;41.50;;;6.70;98.50;;;;;;5049180;28;20048;-78
2023/01/06 06:41:12;;;;;;;44.03;42.33;;;6.70;98.50;;;;;;5050507;28;20029;-78
2023/01/06 06:43:39;;;;;;;43.08;41.47;;;6.70;98.50;;;;;;5050047;28;20035;-79
2023/01/06 06:46:04;;;;;;;;;;;6.70;98.50;;;;;;5049484;28;20033;-79
2023/01/06 06:48:30;;;;;;;42.40;40.80;;;6.80;98.50;;;;;;5048964;28;20327;-79
2023/01/06 06:51:01;;;;;;;42.70;41.10;;;6.80;98.40;;;;;;5048803;28;20365;-78
2023/01/06 06:53:27;;;;;;;42.22;40.63;;;6.80;98.40;;;;;;5049993;28;20044;-78
2023/01/06 06:55:54;;;;;;;43.95;42.25;;;6.90;98.40;;;;;;5049834;28;20029;-78
2023/01/06 06:58:20;;;;;;;40.05;38.55;;;6.90;98.40;;;;;;5050115;28;20188;-78
2023/01/06 07:00:46;;;;;;;41.90;40.30;;;6.90;98.40;;;;;;5048498;28;20160;-78
2023/01/06 07:03:11;;;;;;;42.42;40.83;;;6.90;98.40;;;;;;5048486;28;20111;-76
2023/01/06 07:05:37;;;;;;;41.63;40.03;;;6.90;98.40;;;;;;5049262;28;20029;-76
2023/01/06 07:08:03;;;;;;;44.65;42.95;;;6.90;98.40;;;;;;5032732;28;20229;-76
2023/01/06 07:10:29;;;;;;;42.83;41.22;;;6.90;98.40;;;;;;5049510;28;20025;-76
2023/01/06 07:12:55;;;;;;;40.53;38.97;;;7.00;98.40;;;;;;5032071;28;20033;-76
2023/01/06 07:15:20;;;;;;;43.90;42.20;;;7.00;98.50;;;;;;5032389;28;20059;-76
2023/01/06 07:17:46;;;;;;;41.50;39.90;;;7.10;98.50;;;;;;5049811;28;20036;-75
2023/01/06 07:20:12;;;;;;;40.90;39.33;;;7.10;98.50;;;;;;5015416;28;20075;-75
2023/01/06 07:22:40;;;;;;;44.08;42.38;;;7.10;98.50;;;;;;5032116;28;20063;-75
2023/01/06 07:25:08;;;;;;;43.05;41.45;;;7.20;98.40;;;;;;5031920;28;20025;-77
2023/01/06 07:27:34;;;;;;;44.65;42.95;;;7.20;98.40;;;;;;5049590;28;20055;-76
2023/01/06 07:30:00;;;;;;;;;;;7.20;98.50;;;;;;5049211;28;20032;-76
2023/01/06 07:32:25;;;;;;;42.88;41.25;;;7.20;98.50;;;;;;5049754;28;20357;-74
2023/01/06 07:34:51;;;;;;;43.90;42.20;;;7.30;98.50;;;;;;5049476;28;20049;-75
2023/01/06 07:37:17;;;;;;;42.83;41.22;;;7.30;98.50;;;;;;5050307;28;20478;-76
2023/01/06 07:39:42;;;;;;;43.42;41.72;;;7.30;98.40;;;;;;5033449;28;20044;-76
2023/01/06 07:42:09;;;;;;;43.03;41.42;;;7.30;98.40;;;;;;5031792;28;20044;-76
2023/01/06 07:44:34;;;;;;;;;;;7.30;98.40;;;;;;5048437;28;20392;-75
2023/01/06 07:47:00;;;;;;;45.40;43.70;;;7.30;98.40;;;;;;5049147;28;19999;-75
2023/01/06 07:49:26;;;;;;;48.03;46.22;;;7.30;98.30;;;;;;5048979;28;20033;-75
2023/01/06 07:51:52;;;;;;;48.25;46.40;;;7.30;98.30;;;;;;5049189;28;20037;-75
2023/01/06 07:54:17;;;;;;;49.17;47.28;;;7.20;98.30;;;;;;5047385;28;20029;-75
2023/01/06 07:56:43;;;;;;;49.72;47.83;;;7.20;98.40;;;;;;5030930;28;20521;-75
2023/01/06 07:59:09;;;;;;;50.78;48.88;;;7.20;98.40;;;;;;5047519;28;20128;-76
2023/01/06 08:01:35;;;;;;;50.60;48.65;;;7.20;98.40;;;;;;5047329;28;20362;-75
2023/01/06 08:04:01;;;;;;;52.70;50.70;;;7.20;98.50;;;;;;5047356;28;20029;-75
2023/01/06 08:06:27;;;;;;;53.22;51.22;;;7.10;98.40;;;;;;5047457;28;20039;-75
2023/01/06 08:08:53;;;;;;;53.90;51.80;;;7.10;98.40;;;;;;5048724;28;20055;-75
2023/01/06 08:11:19;;;;;;;54.25;52.15;;;7.10;98.40;;;;;;5047166;28;20123;-75
2023/01/06 08:13:45;;;;;;;55.00;52.90;;;7.10;98.40;;;;;;5048588;28;20541;-75
2023/01/06 08:16:10;;;;;;;54.88;52.78;;;7.10;98.40;;;;;;5048648;28;20064;-76
2023/01/06 08:18:37;;;;;;;56.15;53.95;;;7.10;98.40;;;;;;5048620;28;20033;-76
2023/01/06 08:21:06;;;;;;;56.22;54.03;;;7.10;98.40;;;;;;5046940;28;20052;-77
2023/01/06 08:23:32;;;;;;;58.17;55.95;;;7.00;98.30;;;;;;5048192;28;20029;-77
2023/01/06 08:26:06;;;;;;;56.13;53.92;;;7.00;98.40;;;;;;5048483;28;20033;-77
2023/01/06 08:28:33;;;;;;;56.85;54.65;;;7.00;98.40;;;;;;5031000;28;20032;-76
2023/01/06 08:30:59;;;;;;;56.78;54.58;;;7.00;98.40;;;;;;5030247;28;20382;-77
2023/01/06 08:33:25;;;;;;;58.28;55.97;;;7.00;98.40;;;;;;5047926;28;20112;-76
2023/01/06 08:36:02;;;;;;;58.08;55.78;;;7.00;98.40;;;;;;5046896;28;20033;-77
2023/01/06 08:38:29;;;;;;;58.60;56.30;;;7.00;98.40;;;;;;5048246;28;20021;-77
2023/01/06 08:40:56;;;;;;;58.13;55.83;;;7.00;98.40;;;;;;5048182;28;20037;-77
2023/01/06 08:43:23;;;;;;;57.97;55.72;;;7.00;98.40;;;;;;5050289;28;20033;-78
2023/01/06 08:45:49;;;;;;;58.92;56.63;;;7.00;98.40;;;;;;5047102;28;20028;-78
2023/01/06 08:48:15;;;;;;;56.83;54.63;;;7.00;98.50;;;;;;5048393;28;20448;-77
2023/01/06 08:50:41;;;;;;;55.83;53.63;;;7.00;98.50;;;;;;5047774;28;20036;-77
2023/01/06 08:53:08;;;;;;;58.00;55.70;;;7.00;98.50;;;;;;5046468;28;20056;-76
2023/01/06 08:55:38;;;;;;;59.15;56.85;;;7.00;98.50;;;;;;5046558;28;20082;-77
2023/01/06 08:58:04;;;;;;;56.45;54.25;;;7.00;98.50;;;;;;5047736;28;20049;-76
2023/01/06 09:00:30;;;;;;;58.25;55.95;;;7.10;98.50;;;;;;5047710;28;20029;-76
2023/01/06 09:02:55;;;;;;;56.25;54.05;;;7.10;98.60;;;;;;5046157;28;20041;-76
2023/01/06 09:05:21;;;;;;;56.50;54.30;;;7.20;98.60;;;;;;5045769;28;20101;-76
2023/01/06 09:07:48;;;;;;;55.15;53.05;;;7.20;98.60;;;;;;5045344;28;20048;-76
2023/01/06 09:10:14;;;;;;;55.90;53.75;;;7.30;98.60;;;;;;5034361;28;20028;-75
2023/01/06 09:12:39;;;;;;;57.40;55.20;;;7.30;98.60;;;;;;5035331;28;20397;-76
2023/01/06 09:15:06;;;;;;;57.30;55.10;;;7.40;98.50;;;;;;5047703;28;20025;-77
2023/01/06 09:17:31;;;;;;;53.60;51.50;;;7.40;98.50;;;;;;5052139;28;20037;-78
2023/01/06 09:19:57;;;;;;;54.33;52.22;;;7.50;98.50;;;;;;5029544;28;20052;-78
2023/01/06 09:22:23;;;;;;;57.03;54.83;;;7.50;98.40;;;;;;5048732;28;20057;-77
2023/01/06 09:24:48;;;;;;;55.92;53.72;;;7.50;98.40;;;;;;5052966;28;20085;-78
2023/01/06 09:27:14;;;;;;;55.72;53.55;;;7.50;98.40;;;;;;5030614;28;20071;-78
2023/01/06 09:29:40;;;;;;;54.30;52.20;;;7.50;98.40;;;;;;5049967;28;20052;-77
2023/01/06 09:32:06;;;;;;;53.47;51.38;;;7.60;98.40;;;;;;5028364;28;20033;-80
2023/01/06 09:34:31;;;;;;;52.35;50.35;;;7.60;98.50;;;;;;5019570;28;20431;-78
2023/01/06 09:36:57;;;;;;;50.72;48.83;;;7.70;98.50;;;;;;5038085;28;20026;-79
2023/01/06 09:39:23;;;;;;;49.80;47.90;;;7.70;98.60;;;;;;5041201;28;20397;-77
2023/01/06 09:42:04;;;;;;;51.90;49.90;;;7.80;98.60;;;;;;5037020;28;20065;-79
2023/01/06 09:44:32;;;;;;;49.63;47.72;;;7.90;98.60;;;;;;5057393;28;20029;-79
2023/01/06 09:47:00;;;;;;;49.55;47.65;;;8.00;98.60;;;;;;5050175;28;20040;-79
2023/01/06 09:49:41;;;;;;;50.22;48.33;;;8.00;98.50;;;;;;5051964;28;20036;-79
2023/01/06 09:52:47;;;;;;;52.30;50.30;;;8.00;98.50;;;;;;5034870;28;20497;-79
2023/01/06 09:55:31;;;;;;;49.00;47.10;;;8.10;98.60;;;;;;5051833;28;20032;-79
2023/01/06 09:58:10;;;;;;;47.90;46.10;;;8.10;98.60;;;;;;5047215;28;20041;-79
2023/01/06 10:00:44;;;;;;;48.72;46.83;;;8.20;98.60;;;;;;5044815;28;20017;-79
2023/01/06 10:03:19;;;;;;;49.22;47.33;;;8.20;98.60;;;;;;5048019;28;20021;-79
2023/01/06 10:06:03;;;;;;;47.30;45.50;;;8.30;98.70;;;;;;5035466;28;20028;-79
2023/01/06 10:09:04;;;;;;;48.35;46.55;;;8.40;98.60;;;;;;5036812;28;20107;-79
2023/01/06 10:11:40;;;;;;;48.65;46.83;;;8.40;98.60;;;;;;5037811;28;20029;-79
2023/01/06 10:14:13;;;;;;;48.10;46.30;;;8.50;98.60;;;;;;5038801;28;20108;-79
2023/01/06 10:16:47;;;;;;;46.53;44.72;;;8.60;98.60;;;;;;5033645;28;20473;-81
2023/01/06 10:19:38;;;;;;;47.33;45.53;;;8.60;98.60;;;;;;5035741;28;20021;-80
2023/01/06 10:22:27;;;;;;;45.15;43.45;;;8.70;98.70;;;;;;5031839;28;20072;-81
2023/01/06 10:25:19;;;;;;;42.40;40.80;;;8.80;98.80;;;;;;5030268;28;20020;-79
2023/01/06 10:27:54;;;;;;;38.78;37.28;;;8.90;98.80;;;;;;5030312;28;20033;-80
2023/01/06 10:30:27;;;;;;;27.33;26.23;;;9.10;99.00;;;;;;5040972;28;20031;-79
2023/01/06 10:32:53;;;;;;;17.90;17.20;;;9.50;99.60;;;;;;5052255;28;20021;-78
2023/01/06 10:35:23;;;;;;;19.60;18.80;;;10.20;99.90;;;;;;5050765;28;20031;-79
2023/01/06 10:37:50;;;;;;;19.52;18.73;;;10.80;99.60;;;;;;5052005;28;20029;-79
2023/01/06 10:40:26;;;;;;;19.88;19.08;;;11.00;99.20;;;;;;5058017;28;20075;-78
2023/01/06 10:42:59;;;;;;;23.65;22.75;;;11.10;98.80;;;;;;5057528;28;20459;-68
2023/01/06 10:45:35;;;;;;;23.38;22.48;;;11.00;98.60;;;;;;5055721;28;20509;-79
2023/01/06 10:48:03;;;;;;;23.60;22.70;;;11.00;98.70;;;;;;5055226;28;20034;-79
2023/01/06 10:50:29;;;;;;;23.42;22.52;;;11.00;98.70;;;;;;5036493;28;20025;-78
2023/01/06 10:52:55;;;;;;;;;;;10.90;98.70;;;;;;5051771;28;20032;-78
2023/01/06 10:55:30;;;;;;;21.40;20.50;;;10.90;98.80;;;;;;5032922;28;19931;-79
2023/01/06 10:58:02;;;;;;;15.82;15.13;;;11.00;99.10;;;;;;5038494;28;20045;-77
2023/01/06 11:00:28;;;;;;;15.57;14.88;;;11.30;99.40;;;;;;5047467;28;20025;-78
2023/01/06 11:03:02;;;;;;;13.18;12.57;;;11.60;99.40;;;;;;5052775;28;20702;-80
2023/01/06 11:05:30;;;;;;;12.75;12.15;;;11.90;99.50;;;;;;5051884;28;20034;-78
2023/01/06 11:08:10;;;;;;;10.80;10.30;;;12.20;99.30;;;;;;5050966;28;20032;-81
2023/01/06 11:10:40;;;;;;;11.35;10.85;;;12.50;99.30;;;;;;5053107;28;20359;-79
2023/01/06 11:13:27;;;;;;;9.90;9.40;;;12.70;99.30;;;;;;5050310;28;20021;-79
2023/01/06 11:15:54;;;;;;;9.05;8.65;;;13.00;99.40;;;;;;5057236;28;20029;-79
2023/01/06 11:18:31;;;;;;;8.85;8.45;;;13.20;99.10;;;;;;5052932;28;20048;-79
2023/01/06 11:21:06;;;;;;;8.75;8.35;;;13.10;98.70;;;;;;5050236;28;20106;-77
2023/01/06 11:23:33;;;;;;;7.00;6.60;;;13.10;99.00;;;;;;5043459;28;20465;-79
2023/01/06 11:26:13;;;;;;;7.53;7.13;;;13.20;99.20;;;;;;5054032;28;20029;-80
2023/01/06 11:28:44;;;;;;;7.50;7.10;;;13.10;99.10;;;;;;5043199;28;20017;-74
2023/01/06 11:31:24;;;;;;;8.75;8.35;;;13.00;98.70;;;;;;5035328;28;20612;-77
2023/01/06 11:34:02;;;;;;;9.80;9.30;;;12.70;98.80;;;;;;5034508;28;20546;-80
2023/01/06 11:36:31;;;;;;;11.68;11.18;;;12.50;98.70;;;;;;5037530;28;20022;-79
2023/01/06 11:39:03;;;;;;;13.32;12.73;;;12.30;98.70;;;;;;5047676;28;20540;-78
2023/01/06 11:41:35;;;;;;;13.13;12.52;;;12.10;98.70;;;;;;5044081;28;20138;-77
2023/01/06 11:44:29;;;;;;;14.98;14.38;;;12.00;98.70;;;;;;5031955;28;20018;-78
2023/01/06 11:47:07;;;;;;;15.77;15.07;;;11.80;98.80;;;;;;5045791;28;20697;-79
2023/01/06 11:49:42;;;;;;;17.25;16.55;;;11.70;98.80;;;;;;5054509;28;20358;-81
2023/01/06 11:52:20;;;;;;;18.25;17.52;;;11.60;98.80;;;;;;5055606;28;20078;-80
2023/01/06 11:55:04;;;;;;;18.45;17.65;;;11.50;98.80;;;;;;5054166;28;20090;-79
2023/01/06 11:57:58;;;;;;;18.67;17.88;;;11.50;98.90;;;;;;5032974;28;20108;-82
2023/01/06 12:00:33;;;;;;;18.58;17.77;;;11.50;99.00;;;;;;5036314;28;20042;-79
2023/01/06 12:03:06;;;;;;;19.63;18.83;;;11.60;99.00;;;;;;5033517;28;20029;-78
2023/01/06 12:05:50;;;;;;;20.20;19.40;;;11.60;99.00;;;;;;5031497;28;20036;-78
2023/01/06 12:08:25;;;;;;;19.55;18.75;;;11.70;98.90;;;;;;5041759;28;20060;-78
2023/01/06 12:11:06;;;;;;;20.60;19.80;;;11.70;98.90;;;;;;5033543;28;20046;-76
2023/01/06 12:13:32;;;;;;;20.70;19.90;;;11.70;98.90;;;;;;5031218;28;20029;-76
2023/01/06 12:16:11;;;;;;;20.80;20.00;;;11.60;98.90;;;;;;5013958;28;20068;-74
2023/01/06 12:18:39;;;;;;;21.20;20.38;;;11.70;98.90;;;;;;5032410;28;20449;-76
2023/01/06 12:21:05;;;;;;;20.98;20.17;;;11.70;98.90;;;;;;5032373;28;20029;-79
2023/01/06 12:23:38;;;;;;;22.40;21.50;;;11.70;98.90;;;;;;5033320;28;20528;-77
2023/01/06 12:26:15;;;;;;;22.75;21.85;;;11.70;98.90;;;;;;5034108;28;20442;-77
2023/01/06 12:28:43;;;;;;;;;;;11.80;98.90;;;;;;5038959;28;20025;-78
2023/01/06 12:31:26;;;;;;;20.80;20.00;;;11.80;99.00;;;;;;5038793;28;19928;-78
2023/01/06 12:34:28;;;;;;;20.73;19.92;;;11.90;99.00;;;;;;5036938;28;20035;-79
2023/01/06 12:36:57;;;;;;;20.15;19.35;;;12.00;99.10;;;;;;5029970;28;20053;-78
2023/01/06 12:39:44;;;;;;;20.25;19.45;;;12.20;99.00;;;;;;5030837;28;20068;-73
2023/01/06 12:42:26;;;;;;;;;;;12.20;98.90;;;;;;5033542;28;20032;-73
2023/01/06 12:45:10;;;;;;;19.60;18.80;;;12.20;98.90;;;;;;5032216;28;19940;-77
2023/01/06 12:47:54;;;;;;;18.50;17.70;;;12.30;98.90;;;;;;5034204;28;20022;-74
2023/01/06 12:50:49;;;;;;;20.10;19.30;;;12.20;99.10;;;;;;5031376;28;20025;-74
2023/01/06 12:53:30;;;;;;;18.95;18.15;;;12.20;98.80;;;;;;5031639;28;20109;-75
2023/01/06 12:56:38;;;;;;;19.23;18.42;;;12.20;98.80;;;;;;5028645;28;20514;-73
2023/01/06 12:59:28;;;;;;;19.92;19.13;;;12.20;98.90;;;;;;5031379;28;20079;-78
2023/01/06 13:02:31;;;;;;;17.70;17.00;;;12.30;99.00;;;;;;5029101;28;20029;-75